Time;durP1;ratioP1;P1;durP2;ratioP2;P2;SDS_P1;SDS_P2;PMS_P1;PMS_P2;Temp;Humidity;BMP_temperature;BMP_pressure;BME280_temperature;BME280_humidity;BME280_pressure;Samples;Min_cycle;Max_cycle;Signal;HPM_P1;HPM_P2
2022/06/03 00:02:51;;;;;;;5.47;4.47;;;17.80;99.90;;;;;;5074144;28;20448;-57
2022/06/03 00:05:40;;;;;;;5.63;5.00;;;17.90;99.90;;;;;;5073878;28;20795;-58
2022/06/03 00:08:19;;;;;;;4.80;4.27;;;17.90;99.90;;;;;;5050950;28;20448;-58
2022/06/03 00:11:16;;;;;;;4.63;4.20;;;17.90;99.90;;;;;;5074398;28;20458;-58
2022/06/03 00:14:06;;;;;;;4.63;4.23;;;17.70;99.90;;;;;;5073828;28;21007;-58
2022/06/03 00:16:48;;;;;;;4.53;4.23;;;17.50;99.90;;;;;;5073843;28;20424;-58
2022/06/03 00:19:41;;;;;;;5.57;4.97;;;17.50;99.90;;;;;;5073877;28;20890;-58
2022/06/03 00:22:24;;;;;;;5.47;4.93;;;17.50;99.90;;;;;;5074431;28;20433;-58
2022/06/03 00:25:16;;;;;;;6.10;4.43;;;17.40;99.90;;;;;;5073361;28;20553;-57
2022/06/03 00:28:00;;;;;;;5.20;4.70;;;17.30;99.90;;;;;;5073354;28;20448;-58
2022/06/03 00:30:48;;;;;;;5.30;4.80;;;17.20;99.90;;;;;;5073267;28;20467;-58
2022/06/03 00:33:43;;;;;;;5.37;4.90;;;17.40;99.90;;;;;;5073733;28;20413;-58
2022/06/03 00:36:30;;;;;;;4.90;4.50;;;17.30;99.90;;;;;;5077280;28;20899;-58
2022/06/03 00:39:07;;;;;;;4.93;4.53;;;17.20;99.90;;;;;;5077385;28;20547;-58
2022/06/03 00:41:49;;;;;;;5.00;4.50;;;17.20;99.90;;;;;;5077744;28;20843;-57
2022/06/03 00:44:40;;;;;;;5.50;4.83;;;17.30;99.90;;;;;;5077209;28;20443;-57
2022/06/03 00:47:24;;;;;;;7.20;5.47;;;17.30;99.90;;;;;;5077271;28;20440;-58
2022/06/03 00:50:14;;;;;;;9.17;4.87;;;17.20;99.90;;;;;;5077477;28;20459;-58
2022/06/03 00:53:11;;;;;;;4.83;4.43;;;17.20;99.90;;;;;;5057481;28;20881;-58
2022/06/03 00:56:07;;;;;;;5.27;4.80;;;17.20;99.90;;;;;;5060038;28;20444;-58
2022/06/03 00:58:50;;;;;;;5.90;5.40;;;17.30;99.90;;;;;;5069168;28;20464;-58
2022/06/03 01:01:28;;;;;;;5.50;4.73;;;17.20;99.90;;;;;;5077337;28;20433;-58
2022/06/03 01:04:25;;;;;;;5.30;4.70;;;17.20;99.90;;;;;;5077313;28;20547;-58
2022/06/03 01:07:04;;;;;;;5.67;5.07;;;17.30;99.90;;;;;;5077222;28;20447;-58
2022/06/03 01:09:47;;;;;;;5.87;5.07;;;17.30;99.90;;;;;;5076805;28;20483;-58
2022/06/03 01:12:50;;;;;;;5.10;4.60;;;17.30;99.90;;;;;;5077152;28;20508;-57
2022/06/03 01:15:29;;;;;;;4.53;4.13;;;17.20;99.90;;;;;;5077255;28;20474;-58
2022/06/03 01:18:12;;;;;;;5.03;4.63;;;17.00;99.90;;;;;;5077094;28;20432;-58
2022/06/03 01:20:56;;;;;;;4.90;4.50;;;17.10;99.90;;;;;;5076988;28;20438;-58
2022/06/03 01:23:54;;;;;;;6.00;5.40;;;17.10;99.90;;;;;;5076887;28;20432;-58
2022/06/03 01:27:02;;;;;;;5.87;5.30;;;17.10;99.90;;;;;;5076501;28;20541;-58
2022/06/03 01:29:48;;;;;;;6.03;5.43;;;16.90;99.90;;;;;;5056190;28;20471;-58
2022/06/03 01:32:49;;;;;;;5.20;4.80;;;16.80;99.90;;;;;;5076415;28;20467;-58
2022/06/03 01:35:49;;;;;;;5.70;5.20;;;16.70;99.90;;;;;;5076712;28;20428;-57
2022/06/03 01:38:30;;;;;;;6.47;4.70;;;16.90;99.90;;;;;;5076535;28;20444;-58
2022/06/03 01:41:28;;;;;;;5.27;4.77;;;16.80;99.90;;;;;;5076584;28;20434;-58
2022/06/03 01:44:35;;;;;;;5.73;5.20;;;16.90;99.90;;;;;;5076023;28;21034;-58
2022/06/03 01:47:37;;;;;;;9.20;5.73;;;16.90;99.90;;;;;;5033877;28;20448;-58
2022/06/03 01:50:29;;;;;;;7.37;5.57;;;16.90;99.90;;;;;;5014147;28;20489;-58
2022/06/03 01:53:20;;;;;;;5.60;5.10;;;16.90;99.90;;;;;;5070095;28;20988;-58
2022/06/03 01:56:16;;;;;;;5.20;4.80;;;16.80;99.90;;;;;;5076150;28;20439;-57
2022/06/03 01:59:23;;;;;;;5.83;5.23;;;16.70;99.90;;;;;;5068947;28;20483;-58
2022/06/03 02:02:34;;;;;;;6.60;6.00;;;16.60;99.90;;;;;;5076201;28;20420;-58
2022/06/03 02:05:17;;;;;;;6.67;5.83;;;16.60;99.90;;;;;;5075834;28;20464;-58
2022/06/03 02:08:13;;;;;;;7.80;5.23;;;16.70;99.90;;;;;;5076164;28;20512;-58
2022/06/03 02:11:01;;;;;;;5.20;4.80;;;16.60;99.90;;;;;;5058844;28;20794;-58
2022/06/03 02:13:47;;;;;;;7.57;5.40;;;16.40;99.90;;;;;;5066063;28;20456;-57
2022/06/03 02:16:48;;;;;;;5.73;5.23;;;16.60;99.90;;;;;;5075938;28;20436;-57
2022/06/03 02:19:42;;;;;;;7.50;5.90;;;16.50;99.90;;;;;;5075539;28;20543;-58
2022/06/03 02:22:39;;;;;;;5.20;4.80;;;16.60;99.90;;;;;;5075861;28;20425;-58
2022/06/03 02:25:37;;;;;;;7.23;5.03;;;16.60;99.90;;;;;;5071255;28;20998;-57
2022/06/03 02:28:18;;;;;;;5.33;4.93;;;16.40;99.90;;;;;;5075722;28;20508;-57
2022/06/03 02:31:15;;;;;;;6.93;5.30;;;16.30;99.90;;;;;;5075579;28;20433;-57
2022/06/03 02:34:24;;;;;;;7.47;5.13;;;16.50;99.90;;;;;;5075633;28;20453;-58
2022/06/03 02:37:31;;;;;;;5.27;4.87;;;16.60;99.90;;;;;;5075662;28;20424;-57
2022/06/03 02:40:47;;;;;;;4.57;4.17;;;16.70;99.90;;;;;;5075073;28;20555;-58
2022/06/03 02:43:48;;;;;;;5.20;4.80;;;16.60;99.90;;;;;;5050822;28;20788;-57
2022/06/03 02:46:52;;;;;;;6.40;5.20;;;16.60;99.90;;;;;;5075824;28;20984;-57
2022/06/03 02:49:59;;;;;;;5.77;5.27;;;16.60;99.90;;;;;;5107573;28;20486;-57
2022/06/03 02:52:58;;;;;;;6.07;5.10;;;16.70;99.90;;;;;;5115577;28;20431;-58
2022/06/03 02:55:51;;;;;;;6.77;6.10;;;16.60;99.90;;;;;;5115329;28;20869;-58
2022/06/03 02:58:41;;;;;;;6.10;5.50;;;16.70;99.90;;;;;;5114884;28;20510;-57
2022/06/03 03:01:26;;;;;;;5.50;5.10;;;16.70;99.90;;;;;;5115298;28;20880;-58
2022/06/03 03:04:21;;;;;;;5.67;5.17;;;16.40;99.90;;;;;;5115309;28;20423;-57
2022/06/03 03:07:34;;;;;;;6.27;5.30;;;16.40;99.90;;;;;;5115486;28;20922;-57
2022/06/03 03:10:16;;;;;;;10.60;5.43;;;16.50;99.90;;;;;;5095605;28;20819;-57
2022/06/03 03:13:11;;;;;;;6.03;5.50;;;16.30;99.90;;;;;;5115270;28;20585;-57
2022/06/03 03:16:22;;;;;;;5.47;5.07;;;16.40;99.90;;;;;;5115404;28;20450;-58
2022/06/03 03:19:14;;;;;;;7.23;5.30;;;16.50;99.90;;;;;;5114948;28;20506;-57
2022/06/03 03:22:07;;;;;;;6.53;5.50;;;16.50;99.90;;;;;;5115270;28;20513;-57
2022/06/03 03:24:59;;;;;;;6.27;5.67;;;16.40;99.90;;;;;;5070716;28;20476;-57
2022/06/03 03:28:05;;;;;;;5.67;5.17;;;16.50;99.90;;;;;;5114934;28;20420;-57
2022/06/03 03:30:37;;;;;;;5.80;4.77;;;16.60;99.90;;;;;;5115125;28;20470;-57
2022/06/03 03:33:28;;;;;;;5.83;5.33;;;16.70;99.90;;;;;;5114732;28;20423;-57
2022/06/03 03:36:22;;;;;;;5.93;5.43;;;16.70;99.90;;;;;;5114891;28;20437;-58
2022/06/03 03:39:25;;;;;;;6.73;6.03;;;16.70;99.90;;;;;;5114803;27;20494;-57
2022/06/03 03:42:36;;;;;;;5.37;4.97;;;16.70;99.90;;;;;;5080377;28;20450;-57
2022/06/03 03:45:39;;;;;;;6.50;5.27;;;16.70;99.90;;;;;;5114899;28;20461;-57
2022/06/03 03:48:43;;;;;;;6.70;5.70;;;16.50;99.90;;;;;;5114813;28;20550;-57
2022/06/03 03:51:33;;;;;;;8.43;5.17;;;16.30;99.90;;;;;;5081125;28;20442;-58
2022/06/03 03:54:31;;;;;;;5.97;5.40;;;16.20;99.90;;;;;;5114372;28;20893;-58
2022/06/03 03:57:49;;;;;;;6.53;6.03;;;16.30;99.90;;;;;;5114507;28;20438;-58
2022/06/03 04:00:55;;;;;;;7.73;5.20;;;16.40;99.90;;;;;;5114530;28;20501;-58
2022/06/03 04:04:07;;;;;;;5.90;5.40;;;16.50;99.90;;;;;;5080126;28;20477;-58
2022/06/03 04:07:12;;;;;;;5.20;4.73;;;16.50;99.90;;;;;;5114105;28;20493;-58
2022/06/03 04:10:23;;;;;;;6.97;6.37;;;16.50;99.90;;;;;;5114324;28;20556;-58
2022/06/03 04:13:30;;;;;;;6.33;5.80;;;16.50;99.90;;;;;;5057017;28;20924;-58
2022/06/03 04:16:25;;;;;;;6.60;6.10;;;16.50;99.90;;;;;;5080066;28;20952;-59
2022/06/03 04:19:34;;;;;;;6.90;6.30;;;16.60;99.90;;;;;;5113915;28;20458;-58
2022/06/03 04:22:28;;;;;;;8.33;5.87;;;16.50;99.90;;;;;;5104299;28;20881;-58
2022/06/03 04:25:32;;;;;;;6.20;5.60;;;16.60;99.90;;;;;;5114245;28;20426;-58
2022/06/03 04:28:43;;;;;;;6.10;5.50;;;16.60;99.90;;;;;;5114205;28;20434;-58
2022/06/03 04:31:56;;;;;;;6.37;5.60;;;16.50;99.90;;;;;;5113771;28;20912;-58
2022/06/03 04:35:11;;;;;;;6.03;5.40;;;16.30;99.90;;;;;;5113801;28;21008;-59
2022/06/03 04:38:21;;;;;;;8.80;5.90;;;16.40;99.90;;;;;;5114180;28;20480;-59
2022/06/03 04:41:25;;;;;;;8.23;6.20;;;16.30;99.90;;;;;;5113788;28;21012;-58
2022/06/03 04:44:28;;;;;;;7.33;6.57;;;16.50;99.90;;;;;;5113973;28;20445;-58
2022/06/03 04:47:31;;;;;;;6.80;6.10;;;16.60;99.90;;;;;;5111104;28;20568;-59
2022/06/03 04:50:40;;;;;;;6.27;5.70;;;16.70;99.90;;;;;;5113709;28;20861;-58
2022/06/03 04:54:08;;;;;;;7.20;6.40;;;16.80;99.90;;;;;;5113994;28;20514;-58
2022/06/03 04:57:12;;;;;;;7.10;6.20;;;16.80;99.90;;;;;;5113459;28;20438;-59
2022/06/03 05:00:17;;;;;;;6.00;5.50;;;16.90;99.90;;;;;;5113590;28;20464;-58
2022/06/03 05:03:20;;;;;;;6.93;6.30;;;16.80;99.90;;;;;;5113927;28;20423;-58
2022/06/03 05:06:30;;;;;;;11.80;6.87;;;16.80;99.90;;;;;;5113437;28;20478;-58
2022/06/03 05:09:38;;;;;;;10.93;7.80;;;16.80;99.90;;;;;;5113652;28;20462;-58
2022/06/03 05:12:44;;;;;;;8.03;7.33;;;16.80;99.90;;;;;;5113346;28;20509;-58
2022/06/03 05:15:57;;;;;;;8.60;7.10;;;16.90;99.90;;;;;;5113191;28;20481;-58
2022/06/03 05:19:02;;;;;;;9.47;7.43;;;17.00;99.90;;;;;;5092949;28;20485;-58
2022/06/03 05:22:17;;;;;;;10.63;7.10;;;17.10;99.90;;;;;;5115906;28;20995;-58
2022/06/03 05:25:18;;;;;;;8.90;7.13;;;17.30;99.90;;;;;;5117265;28;20875;-58
2022/06/03 05:28:30;;;;;;;9.33;7.17;;;17.40;99.90;;;;;;5117027;28;20506;-58
2022/06/03 05:31:40;;;;;;;7.30;6.60;;;17.50;99.90;;;;;;5079691;27;20448;-58
2022/06/03 05:34:27;;;;;;;7.43;6.73;;;17.50;99.90;;;;;;5116979;28;20522;-58
2022/06/03 05:37:12;;;;;;;7.53;6.60;;;17.60;99.90;;;;;;5117182;28;20522;-59
2022/06/03 05:40:09;;;;;;;9.83;7.00;;;17.70;99.90;;;;;;5117109;28;20463;-58
2022/06/03 05:43:16;;;;;;;11.80;7.00;;;17.80;99.90;;;;;;5117206;28;20468;-58
2022/06/03 05:46:19;;;;;;;8.63;7.77;;;17.80;99.90;;;;;;5110891;28;20474;-58
2022/06/03 05:49:07;;;;;;;7.90;7.20;;;17.90;99.90;;;;;;5033690;28;20564;-58
2022/06/03 05:51:58;;;;;;;8.30;7.60;;;18.00;99.90;;;;;;5033980;28;20437;-58
2022/06/03 05:54:39;;;;;;;12.37;7.60;;;18.10;99.90;;;;;;5096983;28;21020;-58
2022/06/03 05:57:19;;;;;;;8.97;6.80;;;18.30;99.90;;;;;;5116596;28;20537;-59
2022/06/03 06:00:35;;;;;;;9.90;7.30;;;18.40;99.90;;;;;;5116571;28;20468;-58
2022/06/03 06:03:17;;;;;;;8.20;7.40;;;18.40;99.90;;;;;;5116406;28;20431;-58
2022/06/03 06:05:52;;;;;;;8.80;8.00;;;18.30;99.90;;;;;;5116623;28;20414;-58
2022/06/03 06:08:28;;;;;;;9.20;8.30;;;18.40;99.90;;;;;;5116466;28;20529;-58
2022/06/03 06:11:03;;;;;;;8.90;8.10;;;18.40;99.90;;;;;;5116439;28;20422;-59
2022/06/03 06:13:53;;;;;;;9.93;8.80;;;18.50;99.90;;;;;;5115899;28;20936;-59
2022/06/03 06:16:31;;;;;;;11.20;9.20;;;18.50;99.90;;;;;;5116283;28;20521;-58
2022/06/03 06:19:04;;;;;;;11.40;9.13;;;18.60;99.90;;;;;;5116029;28;20557;-59
2022/06/03 06:22:00;;;;;;;9.63;8.77;;;18.70;99.90;;;;;;5116546;28;20534;-58
2022/06/03 06:24:47;;;;;;;9.50;8.60;;;18.80;99.90;;;;;;5116176;28;20459;-58
2022/06/03 06:27:49;;;;;;;9.37;8.30;;;18.90;99.90;;;;;;5115851;28;20558;-59
2022/06/03 06:30:26;;;;;;;9.73;8.03;;;19.00;99.90;;;;;;5112295;28;20474;-59
2022/06/03 06:33:29;;;;;;;8.20;7.50;;;19.10;99.90;;;;;;5114623;28;20872;-59
2022/06/03 06:36:52;;;;;;;9.93;7.17;;;19.20;99.90;;;;;;5112976;28;20529;-59
2022/06/03 06:39:50;;;;;;;8.80;8.10;;;19.30;99.90;;;;;;5033007;28;20501;-58
2022/06/03 06:42:27;;;;;;;8.63;7.80;;;19.20;99.90;;;;;;5028250;28;20889;-59
2022/06/03 06:45:06;;;;;;;10.80;8.57;;;19.30;99.90;;;;;;5105664;28;20929;-59
2022/06/03 06:47:41;;;;;;;7.90;7.10;;;19.40;99.90;;;;;;5115874;28;21029;-59
2022/06/03 06:50:19;;;;;;;8.17;7.17;;;19.50;99.90;;;;;;5115386;28;21017;-59
2022/06/03 06:53:00;;;;;;;11.80;6.80;;;19.70;99.90;;;;;;5115344;28;20450;-58
2022/06/03 06:55:38;;;;;;;8.40;7.70;;;19.80;99.90;;;;;;5115609;28;20434;-59
2022/06/03 06:58:22;;;;;;;8.10;7.30;;;19.80;99.90;;;;;;5116030;28;20454;-58
2022/06/03 07:00:50;;;;;;;16.00;7.70;;;20.00;99.90;;;;;;5115105;28;20430;-58
2022/06/03 07:03:25;;;;;;;6.70;6.13;;;20.20;99.90;;;;;;5115129;28;20446;-58
2022/06/03 07:05:57;;;;;;;6.90;6.30;;;20.50;99.90;;;;;;5115318;28;20460;-58
2022/06/03 07:08:33;;;;;;;6.67;6.17;;;21.10;99.90;;;;;;5115228;28;20430;-59
2022/06/03 07:11:06;;;;;;;7.90;6.87;;;21.90;99.90;;;;;;5115252;28;20427;-59
2022/06/03 07:13:40;;;;;;;9.40;7.10;;;22.60;99.90;;;;;;5114669;28;20454;-58
2022/06/03 07:16:11;;;;;;;6.53;5.93;;;23.30;99.90;;;;;;5114618;28;20435;-58
2022/06/03 07:22:00;;;;;;;6.20;5.60;;;24.10;99.90;;;;;;5114738;28;20459;-58
2022/06/03 07:24:39;;;;;;;7.63;6.40;;;24.60;99.90;;;;;;5114441;28;20869;-59
2022/06/03 07:27:13;;;;;;;7.73;6.00;;;24.40;99.90;;;;;;5114722;28;20474;-59
2022/06/03 07:29:46;;;;;;;6.83;6.10;;;24.40;99.90;;;;;;5114820;28;20483;-59
2022/06/03 07:32:17;;;;;;;8.63;5.93;;;24.40;99.90;;;;;;5114622;28;20471;-58
2022/06/03 07:34:51;;;;;;;7.73;6.27;;;24.60;99.90;;;;;;5115052;28;20443;-59
2022/06/03 07:37:24;;;;;;;7.10;5.67;;;24.80;99.90;;;;;;5114508;28;20422;-59
2022/06/03 07:39:56;;;;;;;6.30;5.70;;;25.60;99.90;;;;;;5114656;28;20546;-59
2022/06/03 07:42:32;;;;;;;8.30;6.23;;;26.00;99.80;;;;;;5114298;28;20427;-59
2022/06/03 07:45:21;;;;;;;7.03;6.43;;;26.30;99.00;;;;;;5114455;28;20604;-59
2022/06/03 07:47:48;;;;;;;5.67;5.17;;;26.30;99.30;;;;;;5114141;28;20486;-59
2022/06/03 07:50:21;;;;;;;8.60;5.30;;;25.90;98.80;;;;;;5114170;28;20520;-59
2022/06/03 07:52:54;;;;;;;4.50;4.20;;;25.80;99.10;;;;;;5114103;28;20427;-59
2022/06/03 07:55:25;;;;;;;6.80;5.30;;;25.70;99.70;;;;;;5114077;28;20894;-59
2022/06/03 07:57:56;;;;;;;4.97;4.57;;;25.80;99.80;;;;;;5113942;28;20434;-59
2022/06/03 08:00:24;;;;;;;11.07;5.63;;;25.80;99.80;;;;;;5114434;28;20472;-59
2022/06/03 08:03:05;;;;;;;5.97;5.47;;;25.60;99.70;;;;;;5113878;28;20572;-59
2022/06/03 08:05:33;;;;;;;7.73;5.00;;;26.20;99.50;;;;;;5113990;28;20434;-58
2022/06/03 08:10:57;;;;;;;5.57;5.07;;;27.10;98.60;;;;;;5114392;28;20758;-59
2022/06/03 08:13:25;;;;;;;6.43;5.83;;;27.50;97.60;;;;;;5114442;28;20850;-59
2022/06/03 08:15:55;;;;;;;6.83;5.40;;;27.90;98.90;;;;;;5114147;28;20434;-59
2022/06/03 08:18:23;;;;;;;5.17;4.10;;;28.30;99.90;;;;;;5113724;28;20478;-59
2022/06/03 08:20:55;;;;;;;4.80;4.50;;;28.70;95.10;;;;;;5113786;28;20533;-59
2022/06/03 08:23:25;;;;;;;5.50;5.00;;;28.90;94.20;;;;;;5113723;28;20514;-59
2022/06/03 08:25:57;;;;;;;5.33;4.63;;;29.10;94.00;;;;;;5113369;28;20960;-59
2022/06/03 08:28:26;;;;;;;8.13;4.90;;;29.00;92.90;;;;;;5113748;28;20566;-59
2022/06/03 08:30:56;;;;;;;5.90;4.83;;;28.90;92.90;;;;;;5113628;28;20451;-60
2022/06/03 08:33:30;;;;;;;4.57;4.20;;;28.80;92.70;;;;;;5114146;28;20566;-59
2022/06/03 08:35:57;;;;;;;10.57;5.43;;;29.20;93.30;;;;;;5113891;28;20463;-60
2022/06/03 08:38:29;;;;;;;5.63;4.87;;;29.50;92.30;;;;;;5113562;28;20526;-59
2022/06/03 08:41:13;;;;;;;4.10;3.77;;;29.70;91.20;;;;;;5113890;28;20451;-59
2022/06/03 08:44:05;;;;;;;6.03;5.43;;;30.00;91.90;;;;;;5114078;28;20458;-60
2022/06/03 08:46:36;;;;;;;5.47;4.97;;;;;;;;;;5113776;28;20916;-60
2022/06/03 08:49:10;;;;;;;4.57;4.23;;;30.70;89.90;;;;;;5113094;28;20561;-60
2022/06/03 08:51:41;;;;;;;11.60;4.73;;;30.70;89.60;;;;;;5113517;28;20466;-60
2022/06/03 08:54:12;;;;;;;5.20;4.40;;;;;;;;;;5113747;28;20430;-60
2022/06/03 08:56:44;;;;;;;5.27;4.77;;;31.30;88.10;;;;;;5101994;28;20870;-59
2022/06/03 08:59:20;;;;;;;4.73;4.33;;;31.00;86.70;;;;;;5096948;28;20475;-60
2022/06/03 09:01:53;;;;;;;4.30;4.00;;;30.90;86.80;;;;;;5097876;28;20427;-59
2022/06/03 09:04:30;;;;;;;5.67;3.93;;;31.30;86.60;;;;;;5097043;28;20968;-59
2022/06/03 09:07:04;;;;;;;5.00;3.50;;;31.50;85.20;;;;;;5097346;28;20939;-59
2022/06/03 09:09:37;;;;;;;4.93;4.40;;;31.50;83.00;;;;;;5097069;28;20494;-60
2022/06/03 09:12:13;;;;;;;4.97;4.57;;;31.40;82.10;;;;;;5097315;28;20438;-60
2022/06/03 09:14:43;;;;;;;4.33;4.03;;;31.50;83.30;;;;;;5097313;28;20546;-60
2022/06/03 09:17:29;;;;;;;4.63;4.10;;;31.50;80.50;;;;;;5097312;28;20475;-59
2022/06/03 09:19:59;;;;;;;4.53;4.13;;;30.90;80.60;;;;;;5096670;28;20549;-59
2022/06/03 09:22:31;;;;;;;4.43;4.03;;;30.60;82.30;;;;;;5096630;28;20519;-59
2022/06/03 09:25:01;;;;;;;10.03;5.20;;;30.40;82.70;;;;;;5096562;28;20428;-60
2022/06/03 09:27:31;;;;;;;5.30;4.80;;;30.30;83.00;;;;;;5117096;28;20901;-59
2022/06/03 09:30:02;;;;;;;5.40;4.00;;;31.30;82.30;;;;;;5117188;28;20462;-59
2022/06/03 09:32:37;;;;;;;4.67;4.27;;;31.50;83.00;;;;;;5116849;28;20430;-60
2022/06/03 09:35:10;;;;;;;7.40;3.90;;;31.60;81.40;;;;;;5117156;28;20486;-60
2022/06/03 09:37:41;;;;;;;4.90;4.20;;;;;;;;;;5117081;28;20427;-60
2022/06/03 09:40:13;;;;;;;4.87;4.47;;;32.30;78.30;;;;;;5116987;28;20472;-60
2022/06/03 09:42:49;;;;;;;4.60;3.90;;;32.40;81.40;;;;;;5116947;28;20517;-60
2022/06/03 09:45:20;;;;;;;4.87;4.37;;;32.20;79.00;;;;;;5117207;28;20437;-60
2022/06/03 09:47:48;;;;;;;5.40;5.00;;;32.40;77.60;;;;;;5116610;28;20527;-60
2022/06/03 09:50:21;;;;;;;7.10;5.30;;;32.70;78.30;;;;;;5116731;28;20466;-60
2022/06/03 09:53:01;;;;;;;4.30;4.00;;;32.60;77.30;;;;;;5116709;28;20521;-60
2022/06/03 09:55:31;;;;;;;4.93;4.50;;;32.20;78.80;;;;;;5116597;28;20517;-60
2022/06/03 09:58:02;;;;;;;5.07;4.57;;;33.00;76.90;;;;;;5116419;28;20494;-59
2022/06/03 10:00:36;;;;;;;4.87;4.47;;;33.20;75.30;;;;;;5116721;28;20561;-59
2022/06/03 10:03:05;;;;;;;4.53;4.13;;;33.00;75.70;;;;;;5117187;28;20437;-59
2022/06/03 10:05:32;;;;;;;4.80;4.40;;;;;;;;;;5116702;28;20446;-59
2022/06/03 10:08:03;;;;;;;7.43;4.37;;;32.40;76.30;;;;;;5116148;28;20999;-59
2022/06/03 10:13:18;;;;;;;5.93;5.13;;;31.80;77.10;;;;;;5116457;28;20433;-59
2022/06/03 10:15:48;;;;;;;4.90;4.50;;;31.60;77.00;;;;;;5117028;28;20794;-59
2022/06/03 10:18:28;;;;;;;5.93;4.97;;;32.20;76.20;;;;;;5115986;28;20478;-58
2022/06/03 10:20:57;;;;;;;4.40;3.87;;;31.80;75.60;;;;;;5116158;28;20418;-59
2022/06/03 10:23:29;;;;;;;4.80;4.40;;;31.90;68.30;;;;;;5115973;28;20478;-59
2022/06/03 10:26:01;;;;;;;3.10;2.80;;;31.50;73.10;;;;;;5116103;28;20443;-59
2022/06/03 10:28:34;;;;;;;8.93;4.20;;;31.50;67.70;;;;;;5116790;28;20426;-60
2022/06/03 10:31:05;;;;;;;5.13;4.33;;;31.30;70.00;;;;;;5115860;28;20483;-59
2022/06/03 10:33:33;;;;;;;4.20;3.90;;;31.60;74.20;;;;;;5115897;28;20437;-59
2022/06/03 10:36:03;;;;;;;4.30;4.00;;;31.50;70.50;;;;;;5115518;28;20499;-59
2022/06/03 10:38:36;;;;;;;5.07;4.40;;;31.00;73.00;;;;;;5115786;28;20497;-59
2022/06/03 10:41:08;;;;;;;10.00;4.70;;;30.60;73.20;;;;;;5115787;28;20653;-59
2022/06/03 10:43:37;;;;;;;3.40;3.10;;;30.90;73.40;;;;;;5115861;28;20455;-59
2022/06/03 10:46:09;;;;;;;4.80;4.40;;;31.20;69.80;;;;;;5115628;28;20809;-59
2022/06/03 10:48:37;;;;;;;4.43;4.10;;;32.00;74.50;;;;;;5115335;28;20894;-59
2022/06/03 10:51:17;;;;;;;4.13;3.80;;;32.20;68.90;;;;;;5115744;28;20455;-59
2022/06/03 11:02:30;;;;;;;4.93;4.30;;;30.20;65.80;;;;;;5115482;28;20402;-59
2022/06/03 11:05:10;;;;;;;3.43;3.13;;;30.30;72.40;;;;;;5115651;28;20442;-59
2022/06/03 11:07:37;;;;;;;6.23;4.10;;;29.60;66.90;;;;;;5115078;28;20513;-59
2022/06/03 11:10:07;;;;;;;3.20;2.80;;;29.40;75.40;;;;;;5111812;28;20503;-60
2022/06/03 11:12:35;;;;;;;4.40;4.00;;;29.10;64.10;;;;;;5115451;28;20439;-59
2022/06/03 11:15:26;;;;;;;4.47;4.07;;;27.90;72.10;;;;;;5115198;28;20450;-61
2022/06/03 11:17:53;;;;;;;4.13;3.83;;;27.20;78.00;;;;;;5114395;28;20487;-60
2022/06/03 11:20:35;;;;;;;3.90;3.50;;;26.70;75.60;;;;;;5114570;28;20545;-60
2022/06/03 11:23:04;;;;;;;5.10;4.70;;;26.30;73.00;;;;;;5115056;28;20500;-59
2022/06/03 11:25:33;;;;;;;5.53;5.03;;;26.20;80.00;;;;;;5114721;28;20442;-59
2022/06/03 11:28:03;;;;;;;4.00;3.70;;;26.50;81.60;;;;;;5115104;28;20510;-57
2022/06/03 11:30:35;;;;;;;4.47;4.07;;;26.80;80.50;;;;;;5099478;28;20459;-57
2022/06/03 11:33:06;;;;;;;4.53;4.20;;;26.80;76.80;;;;;;5094505;28;20423;-57
2022/06/03 11:35:39;;;;;;;4.00;3.70;;;26.80;83.00;;;;;;5099355;28;20522;-59
2022/06/03 11:38:11;;;;;;;4.17;3.87;;;26.70;80.00;;;;;;5094962;28;20800;-61
2022/06/03 11:40:43;;;;;;;4.87;4.47;;;26.60;82.10;;;;;;5095728;28;20794;-55
2022/06/03 11:43:15;;;;;;;14.87;5.73;;;26.40;80.80;;;;;;5105478;28;20500;-59
2022/06/03 11:45:49;;;;;;;4.70;4.30;;;26.10;83.70;;;;;;5094001;28;20503;-56
2022/06/03 11:48:22;;;;;;;7.83;4.10;;;25.90;77.40;;;;;;5092752;28;20510;-60
2022/06/03 11:50:50;;;;;;;5.43;5.03;;;25.70;78.50;;;;;;5091073;28;20908;-62
2022/06/03 11:53:24;;;;;;;5.13;4.73;;;25.20;80.60;;;;;;5095760;28;20455;-59
2022/06/03 11:55:53;;;;;;;5.67;4.93;;;25.10;81.10;;;;;;5103051;28;20461;-57
2022/06/03 11:58:25;;;;;;;12.83;4.20;;;24.90;86.80;;;;;;5099276;28;21062;-58
2022/06/03 12:01:01;;;;;;;6.03;4.60;;;24.90;86.40;;;;;;5099539;28;20454;-56
2022/06/03 12:03:39;;;;;;;9.30;4.90;;;25.10;88.50;;;;;;5096563;28;20450;-64
2022/06/03 12:06:11;;;;;;;4.77;4.33;;;25.30;89.40;;;;;;5105282;28;20818;-56
2022/06/03 12:08:53;;;;;;;7.40;4.67;;;25.20;88.10;;;;;;5094455;28;20482;-57
2022/06/03 12:14:33;;;;;;;7.10;4.30;;;25.60;86.50;;;;;;5100190;28;20850;-57
2022/06/03 12:17:22;;;;;;;6.60;4.73;;;25.60;88.30;;;;;;5097768;28;20585;-59
2022/06/03 12:19:52;;;;;;;4.87;4.47;;;25.80;87.70;;;;;;5094969;28;20991;-58
2022/06/03 12:22:36;;;;;;;9.10;5.83;;;25.90;90.80;;;;;;5091950;28;20490;-59
2022/06/03 12:25:06;;;;;;;9.53;4.57;;;26.30;93.10;;;;;;5096464;28;20450;-55
2022/06/03 12:27:36;;;;;;;6.83;5.53;;;26.70;91.90;;;;;;5094776;28;20459;-58
2022/06/03 12:30:44;;;;;;;5.93;4.60;;;26.70;92.30;;;;;;5098670;28;21003;-57
2022/06/03 12:33:23;;;;;;;10.00;5.00;;;26.80;92.40;;;;;;5097284;28;20946;-59
2022/06/03 12:35:57;;;;;;;8.13;5.00;;;26.80;92.10;;;;;;5101676;28;20527;-60
2022/06/03 12:38:52;;;;;;;4.70;4.30;;;26.70;92.30;;;;;;5098605;28;20878;-57
2022/06/03 12:41:57;;;;;;;8.23;4.50;;;26.50;91.70;;;;;;5057719;28;20459;-56
2022/06/03 12:44:40;;;;;;;5.47;4.30;;;26.50;91.20;;;;;;5093457;28;20549;-56
2022/06/03 12:47:51;;;;;;;6.10;5.50;;;26.40;91.40;;;;;;5100678;28;20529;-56
2022/06/03 12:51:01;;;;;;;7.40;4.17;;;26.50;93.40;;;;;;5094184;28;20475;-56
2022/06/03 12:53:41;;;;;;;11.77;4.70;;;26.60;92.60;;;;;;5099565;28;20942;-54
2022/06/03 12:56:27;;;;;;;11.40;5.60;;;26.80;91.70;;;;;;5097428;28;21081;-57
2022/06/03 12:59:00;;;;;;;5.93;4.80;;;26.50;91.60;;;;;;5097290;28;20486;-57
2022/06/03 13:01:45;;;;;;;5.13;4.67;;;26.10;93.90;;;;;;5097571;28;21244;-53
2022/06/03 13:04:40;;;;;;;6.00;4.77;;;25.60;92.60;;;;;;5101747;28;20469;-56
2022/06/03 13:07:55;;;;;;;6.60;5.03;;;25.50;93.40;;;;;;5087133;28;20487;-55
2022/06/03 13:10:32;;;;;;;5.17;4.70;;;25.30;93.60;;;;;;5095581;28;21297;-54
2022/06/03 13:13:34;;;;;;;7.30;4.97;;;25.20;94.00;;;;;;5092873;28;20452;-54
2022/06/03 13:16:24;;;;;;;6.27;5.77;;;25.10;94.10;;;;;;5103679;28;20442;-53
2022/06/03 13:18:54;;;;;;;13.90;5.70;;;25.20;94.70;;;;;;5099887;28;20896;-53
2022/06/03 13:21:24;;;;;;;8.20;5.53;;;25.30;95.30;;;;;;5096326;28;20832;-58
2022/06/03 13:24:21;;;;;;;6.03;5.43;;;25.30;96.00;;;;;;5098758;28;20459;-54
2022/06/03 13:27:14;;;;;;;5.60;5.00;;;25.20;95.90;;;;;;5096997;28;20477;-48
2022/06/03 13:30:12;;;;;;;6.37;5.83;;;25.10;95.80;;;;;;5085449;28;20479;-55
2022/06/03 13:33:16;;;;;;;6.43;5.60;;;24.90;97.20;;;;;;5101396;28;20987;-49
2022/06/03 13:36:00;;;;;;;6.83;6.23;;;25.00;97.50;;;;;;5008827;28;20477;-50
2022/06/03 13:38:42;;;;;;;6.10;5.60;;;24.90;97.90;;;;;;5087907;28;20481;-49
2022/06/03 13:44:09;;;;;;;6.50;5.87;;;24.80;98.50;;;;;;5106690;28;20469;-55
2022/06/03 13:46:37;;;;;;;7.47;5.63;;;24.90;98.60;;;;;;5098414;28;20545;-55
2022/06/03 13:49:20;;;;;;;7.87;6.53;;;25.00;99.20;;;;;;5098815;28;20526;-57
2022/06/03 13:52:04;;;;;;;9.30;5.93;;;25.10;99.90;;;;;;5097890;28;20480;-53
2022/06/03 13:54:38;;;;;;;6.70;6.10;;;25.30;99.10;;;;;;5097390;28;20534;-57
2022/06/03 13:57:27;;;;;;;7.10;5.60;;;25.30;98.90;;;;;;5107908;28;21001;-55
2022/06/03 14:00:18;;;;;;;6.67;6.17;;;25.00;99.10;;;;;;5104472;28;20565;-51
2022/06/03 14:02:48;;;;;;;8.70;5.40;;;25.00;99.60;;;;;;5107905;28;20470;-61
2022/06/03 14:05:28;;;;;;;11.03;6.13;;;25.00;99.60;;;;;;5099928;28;20456;-51
2022/06/03 14:07:59;;;;;;;13.13;5.67;;;25.00;99.70;;;;;;5100883;28;20451;-58
2022/06/03 14:10:27;;;;;;;5.87;5.23;;;25.00;99.60;;;;;;5094985;28;20494;-56
2022/06/03 14:13:02;;;;;;;9.80;5.43;;;25.00;99.20;;;;;;5101556;28;20461;-55
2022/06/03 14:15:37;;;;;;;6.53;5.93;;;24.80;98.90;;;;;;5095397;28;20465;-56
2022/06/03 14:18:05;;;;;;;6.90;5.33;;;24.80;99.00;;;;;;5099953;28;20458;-56
2022/06/03 14:20:36;;;;;;;6.13;5.53;;;24.80;99.30;;;;;;5098636;28;20481;-50
2022/06/03 14:23:23;;;;;;;6.03;5.40;;;24.80;99.90;;;;;;5106556;28;20455;-54
2022/06/03 14:25:56;;;;;;;6.87;5.30;;;24.80;98.80;;;;;;5105433;28;20554;-54
2022/06/03 14:28:32;;;;;;;5.20;4.80;;;24.80;99.90;;;;;;5102039;28;20899;-57
2022/06/03 14:31:03;;;;;;;7.13;4.60;;;24.80;99.10;;;;;;5103440;28;20559;-54
2022/06/03 14:33:38;;;;;;;6.47;5.97;;;25.10;98.70;;;;;;5106325;28;20454;-60
2022/06/03 14:36:08;;;;;;;5.93;5.10;;;25.00;99.30;;;;;;5094637;28;20451;-56
2022/06/03 14:38:39;;;;;;;6.67;5.97;;;24.70;99.90;;;;;;5095779;28;20483;-57
2022/06/03 14:41:10;;;;;;;6.00;5.17;;;24.80;99.90;;;;;;5095510;28;20783;-57
2022/06/03 14:43:40;;;;;;;7.90;5.23;;;25.00;99.30;;;;;;5090878;28;20521;-62